createdAt,value
2019-05-03T00:00:17.921Z,1.13
2019-05-03T00:03:06.521Z,2.27
2019-05-03T00:05:45.576Z,1.57
2019-05-03T00:08:15.136Z,1.27
2019-05-03T00:10:45.051Z,1.57
2019-05-03T00:13:14.661Z,1.83
2019-05-03T00:15:56.528Z,2.67
2019-05-03T00:18:26.095Z,1.17
2019-05-03T00:20:55.766Z,1.20
2019-05-03T00:23:25.358Z,2.80
2019-05-03T00:25:55.302Z,1.23
2019-05-03T00:28:25.230Z,1.50
2019-05-03T00:30:54.952Z,2.03
2019-05-03T00:33:24.829Z,1.07
2019-05-03T00:36:07.638Z,2.50
2019-05-03T00:38:37.334Z,1.43
2019-05-03T00:41:07.016Z,2.20
2019-05-03T00:43:36.603Z,1.00
2019-05-03T00:46:06.509Z,2.00
2019-05-03T00:48:36.086Z,2.47
2019-05-03T00:51:06.012Z,1.93
2019-05-03T00:53:35.598Z,1.63
2019-05-03T00:56:05.196Z,1.73
2019-05-03T00:58:48.844Z,2.17
2019-05-03T01:01:18.658Z,1.23
2019-05-03T01:03:48.263Z,1.03
2019-05-03T01:06:17.839Z,2.10
2019-05-03T01:08:47.718Z,1.83
2019-05-03T01:11:17.301Z,2.63
2019-05-03T01:13:48.570Z,1.30
2019-05-03T01:16:19.854Z,2.53
2019-05-03T01:18:49.458Z,1.00
2019-05-03T01:21:19.374Z,1.00
2019-05-03T01:23:49.265Z,1.10
2019-05-03T01:26:19.141Z,2.73
2019-05-03T01:28:49.010Z,2.00
2019-05-03T01:31:18.577Z,1.43
2019-05-03T01:33:48.218Z,1.07
2019-05-03T01:36:17.796Z,1.80
2019-05-03T01:38:47.423Z,1.60
2019-05-03T01:41:17.007Z,1.83
2019-05-03T01:43:46.575Z,1.10
2019-05-03T01:46:16.145Z,1.07
2019-05-03T01:48:55.141Z,0.93
2019-05-03T01:51:52.655Z,0.70
2019-05-03T01:54:22.896Z,0.80
2019-05-03T01:56:58.759Z,2.80
2019-05-03T01:59:23.993Z,1.37
2019-05-03T02:02:14.181Z,0.80
2019-05-03T02:05:03.169Z,0.83
2019-05-03T02:07:33.659Z,3.53
2019-05-03T02:10:03.345Z,1.17
2019-05-03T02:12:32.963Z,1.37
2019-05-03T02:15:02.920Z,1.40
2019-05-03T02:17:32.496Z,0.97
2019-05-03T02:20:02.357Z,2.83
2019-05-03T02:22:32.005Z,1.93
2019-05-03T02:25:01.840Z,1.27
2019-05-03T02:27:32.570Z,1.63
2019-05-03T02:30:03.359Z,1.07
2019-05-03T02:32:33.300Z,2.67
2019-05-03T02:35:03.026Z,0.77
2019-05-03T02:37:33.174Z,1.23
2019-05-03T02:40:04.250Z,1.77
2019-05-03T02:42:35.629Z,3.33
2019-05-03T02:45:07.235Z,1.13
2019-05-03T02:47:55.506Z,2.73
2019-05-03T02:50:26.001Z,0.93
2019-05-03T02:52:55.774Z,1.40
2019-05-03T02:55:26.264Z,3.67
2019-05-03T02:57:56.537Z,1.20
2019-05-03T03:00:51.017Z,0.90
2019-05-03T03:03:20.581Z,2.27
2019-05-03T03:05:50.521Z,1.23
2019-05-03T03:08:20.133Z,1.17
2019-05-03T03:10:50.162Z,1.47
2019-05-03T03:13:20.185Z,1.30
2019-05-03T03:15:50.052Z,1.80
2019-05-03T03:18:20.205Z,1.10
2019-05-03T03:20:51.664Z,1.10
2019-05-03T03:23:35.540Z,2.70
2019-05-03T03:26:06.182Z,1.40
2019-05-03T03:28:36.073Z,1.63
2019-05-03T03:31:38.290Z,1.13
2019-05-03T03:34:10.719Z,1.27
2019-05-03T03:36:59.379Z,1.80
2019-05-03T03:39:21.043Z,1.33
2019-05-03T03:41:50.931Z,1.23
2019-05-03T03:44:21.060Z,1.40
2019-05-03T03:46:50.844Z,0.80
2019-05-03T03:49:20.543Z,2.93
2019-05-03T03:51:52.369Z,4.20
2019-05-03T03:54:22.129Z,2.63
2019-05-03T03:57:02.947Z,3.03
2019-05-03T03:59:26.576Z,1.60
2019-05-03T04:01:56.614Z,1.80
2019-05-03T04:04:26.573Z,2.73
2019-05-03T04:07:01.003Z,0.87
2019-05-03T04:09:27.611Z,1.10
2019-05-03T04:11:57.225Z,0.87
2019-05-03T04:14:36.253Z,1.70
2019-05-03T04:17:25.772Z,2.13
2019-05-03T04:19:56.036Z,1.43
2019-05-03T04:22:25.739Z,1.87
2019-05-03T04:24:55.486Z,2.87
2019-05-03T04:27:27.596Z,1.87
2019-05-03T04:29:56.442Z,2.37
2019-05-03T04:32:28.961Z,1.67
2019-05-03T04:34:57.342Z,1.00
2019-05-03T04:37:26.999Z,1.27
2019-05-03T04:39:56.744Z,4.93
2019-05-03T04:42:26.354Z,1.07
2019-05-03T04:44:56.560Z,0.90
2019-05-03T04:47:26.857Z,1.93
2019-05-03T04:49:56.411Z,1.87
2019-05-03T04:52:26.279Z,2.10
2019-05-03T04:54:57.997Z,0.83
2019-05-03T04:57:39.706Z,1.53
2019-05-03T05:00:17.015Z,0.93
2019-05-03T05:02:46.704Z,0.80
2019-05-03T05:05:16.394Z,1.63
2019-05-03T05:07:46.203Z,3.80
2019-05-03T05:10:15.853Z,2.27
2019-05-03T05:12:45.824Z,0.77
2019-05-03T05:15:15.979Z,2.13
2019-05-03T05:17:56.253Z,3.67
2019-05-03T05:20:55.477Z,2.70
2019-05-03T05:23:25.490Z,4.57
2019-05-03T05:26:02.364Z,2.73
2019-05-03T05:28:41.479Z,3.00
2019-05-03T05:31:11.041Z,3.20
2019-05-03T05:33:40.601Z,6.20
2019-05-03T05:36:10.156Z,4.33
2019-05-03T05:38:40.059Z,7.57
2019-05-03T05:41:09.618Z,4.50
2019-05-03T05:43:39.180Z,4.87
2019-05-03T05:46:08.732Z,5.40
2019-05-03T05:48:45.216Z,4.40
2019-05-03T05:51:16.137Z,8.43
2019-05-03T05:53:45.871Z,3.70
2019-05-03T05:56:25.084Z,3.60
2019-05-03T05:59:14.817Z,3.47
2019-05-03T06:01:57.277Z,1.67
2019-05-03T06:04:27.145Z,5.53
2019-05-03T06:07:14.873Z,3.80
2019-05-03T06:09:55.026Z,3.77
2019-05-03T06:12:42.785Z,1.93
2019-05-03T06:15:31.405Z,2.03
2019-05-03T06:18:03.001Z,1.67
2019-05-03T06:20:39.765Z,1.73
2019-05-03T06:23:14.512Z,0.90
2019-05-03T06:25:45.373Z,2.43
2019-05-03T06:28:41.677Z,3.47
2019-05-03T06:31:25.283Z,2.67
2019-05-03T06:33:55.370Z,3.10
2019-05-03T06:36:25.201Z,1.43
2019-05-03T06:38:54.861Z,2.60
2019-05-03T06:41:25.062Z,1.37
2019-05-03T06:43:55.309Z,1.00
2019-05-03T06:46:45.482Z,1.83
2019-05-03T06:49:15.457Z,2.13
2019-05-03T06:51:49.489Z,1.80
2019-05-03T06:54:20.643Z,1.87
2019-05-03T06:56:47.537Z,4.37
2019-05-03T06:59:24.813Z,1.23
2019-05-03T07:02:02.891Z,1.90
2019-05-03T07:04:36.571Z,2.17
2019-05-03T07:07:27.760Z,3.07
2019-05-03T07:10:04.920Z,1.33
2019-05-03T07:12:51.958Z,0.70
2019-05-03T07:15:21.608Z,1.77
2019-05-03T07:17:51.227Z,2.63
2019-05-03T07:20:20.794Z,1.00
2019-05-03T07:22:52.305Z,2.10
2019-05-03T07:25:21.855Z,2.33
2019-05-03T07:27:51.599Z,0.83
2019-05-03T07:30:21.140Z,3.03
2019-05-03T07:32:55.790Z,3.63
2019-05-03T07:35:25.341Z,1.20
2019-05-03T07:37:55.507Z,2.00
2019-05-03T07:40:25.526Z,14.77
2019-05-03T07:42:55.654Z,12.07
2019-05-03T07:45:25.642Z,16.40
2019-05-03T07:47:55.965Z,19.17
2019-05-03T07:50:26.083Z,18.20
2019-05-03T07:52:55.930Z,11.90
2019-05-03T07:55:45.516Z,15.63
2019-05-03T07:58:18.163Z,12.10
2019-05-03T08:01:02.545Z,11.20
2019-05-03T08:03:21.087Z,8.33
2019-05-03T08:05:50.666Z,8.33
2019-05-03T08:08:20.259Z,7.03
2019-05-03T08:10:50.143Z,9.20
2019-05-03T08:13:19.789Z,5.80
2019-05-03T08:15:49.345Z,4.87
2019-05-03T08:18:19.295Z,4.37
2019-05-03T08:20:48.868Z,5.90
2019-05-03T08:23:29.148Z,4.33
2019-05-03T08:25:50.917Z,6.33
2019-05-03T08:28:20.690Z,6.07
2019-05-03T08:31:15.529Z,5.00
2019-05-03T08:34:04.822Z,2.60
2019-05-03T08:36:54.355Z,2.30
2019-05-03T08:39:25.275Z,2.10
2019-05-03T08:41:58.374Z,3.40
2019-05-03T08:44:28.143Z,5.50
2019-05-03T08:46:57.984Z,3.57
2019-05-03T08:49:27.746Z,3.47
2019-05-03T08:51:57.601Z,5.13
2019-05-03T08:54:27.140Z,3.23
2019-05-03T08:56:56.831Z,1.50
2019-05-03T08:59:31.798Z,3.07
2019-05-03T09:01:57.710Z,5.53
2019-05-03T09:04:36.356Z,2.47
2019-05-03T09:06:58.558Z,4.77
2019-05-03T09:09:40.004Z,2.53
2019-05-03T09:12:09.657Z,3.33
2019-05-03T09:14:45.255Z,2.40
2019-05-03T09:17:10.473Z,3.23
2019-05-03T09:19:40.081Z,3.43
2019-05-03T09:22:09.596Z,4.70
2019-05-03T09:24:39.155Z,3.93
2019-05-03T09:27:08.746Z,3.57
2019-05-03T09:29:43.250Z,1.23
2019-05-03T09:32:09.881Z,5.63
2019-05-03T09:34:39.419Z,5.33
2019-05-03T09:37:08.990Z,4.83
2019-05-03T09:39:40.222Z,4.37
2019-05-03T09:42:10.236Z,4.43
2019-05-03T09:44:39.817Z,4.70
2019-05-03T09:47:09.379Z,6.30
2019-05-03T09:49:39.002Z,4.67
2019-05-03T09:52:08.794Z,4.13
2019-05-03T09:54:45.361Z,1.97
2019-05-03T09:57:15.325Z,5.37
2019-05-03T09:59:56.088Z,3.00
2019-05-03T10:02:16.168Z,3.33
2019-05-03T10:04:45.733Z,2.93
2019-05-03T10:07:15.525Z,2.60
2019-05-03T10:09:45.270Z,5.10
2019-05-03T10:12:19.075Z,2.23
2019-05-03T10:14:48.616Z,3.67
2019-05-03T10:17:28.912Z,5.30
2019-05-03T10:19:58.459Z,4.90
2019-05-03T10:22:28.727Z,2.63
2019-05-03T10:24:58.284Z,2.27
2019-05-03T10:27:29.543Z,2.40
2019-05-03T10:30:11.428Z,6.57
2019-05-03T10:32:53.914Z,2.67
2019-05-03T10:35:24.640Z,2.77
2019-05-03T10:37:54.894Z,3.07
2019-05-03T10:40:28.021Z,2.40
2019-05-03T10:42:57.964Z,3.43
2019-05-03T10:45:28.201Z,3.53
2019-05-03T10:47:57.896Z,4.77
2019-05-03T10:50:27.443Z,3.97
2019-05-03T10:53:04.947Z,2.37
2019-05-03T10:55:35.805Z,3.40
2019-05-03T10:58:10.284Z,1.73
2019-05-03T11:00:46.330Z,2.23
2019-05-03T11:03:12.554Z,2.27
2019-05-03T11:05:42.521Z,3.40
2019-05-03T11:08:12.088Z,1.57
2019-05-03T11:10:41.740Z,1.60
2019-05-03T11:13:11.373Z,2.47
2019-05-03T11:15:40.904Z,8.40
2019-05-03T11:18:10.498Z,2.73
2019-05-03T11:20:40.050Z,2.57
2019-05-03T11:23:10.193Z,2.27
2019-05-03T11:25:40.046Z,3.70
2019-05-03T11:28:15.585Z,3.43
2019-05-03T11:30:53.657Z,3.20
2019-05-03T11:33:21.886Z,1.40
2019-05-03T11:36:22.767Z,2.40
2019-05-03T11:38:52.458Z,2.27
2019-05-03T11:41:30.348Z,2.70
2019-05-03T11:43:53.582Z,1.80
2019-05-03T11:46:24.821Z,2.80
2019-05-03T11:48:54.942Z,2.53
2019-05-03T11:51:24.895Z,3.27
2019-05-03T11:53:54.514Z,2.70
2019-05-03T11:56:24.966Z,1.47
2019-05-03T11:58:55.060Z,1.50
2019-05-03T12:01:36.407Z,2.13
2019-05-03T12:04:06.198Z,1.50
2019-05-03T12:06:36.784Z,1.30
2019-05-03T12:09:07.426Z,1.43
2019-05-03T12:11:55.560Z,4.03
2019-05-03T12:14:25.456Z,2.23
2019-05-03T12:17:16.562Z,2.03
2019-05-03T12:19:34.415Z,1.47
2019-05-03T12:22:06.169Z,2.83
2019-05-03T12:24:36.608Z,2.17
2019-05-03T12:27:06.505Z,3.53
2019-05-03T12:29:36.419Z,1.50
2019-05-03T12:32:06.006Z,0.90
2019-05-03T12:34:35.869Z,2.73
2019-05-03T12:37:05.454Z,2.23
2019-05-03T12:39:35.928Z,2.30
2019-05-03T12:42:06.057Z,2.00
2019-05-03T12:44:35.755Z,1.90
2019-05-03T12:47:06.138Z,2.87
2019-05-03T12:49:36.161Z,1.93
2019-05-03T12:52:05.886Z,4.60
2019-05-03T12:54:36.020Z,1.87
2019-05-03T12:57:05.577Z,2.73
2019-05-03T12:59:55.666Z,3.03
2019-05-03T13:02:47.553Z,1.13
2019-05-03T13:05:17.140Z,3.13
2019-05-03T13:08:05.704Z,2.17
2019-05-03T13:10:35.308Z,2.30
2019-05-03T13:13:04.870Z,2.23
2019-05-03T13:15:35.191Z,2.93
2019-05-03T13:18:05.092Z,2.73
2019-05-03T13:20:36.014Z,1.97
2019-05-03T13:23:06.279Z,2.03
2019-05-03T13:25:35.850Z,1.97
2019-05-03T13:28:05.586Z,1.77
2019-05-03T13:30:35.245Z,1.93
2019-05-03T13:33:05.781Z,3.63
2019-05-03T13:35:35.539Z,3.37
2019-05-03T13:38:05.193Z,2.30
2019-05-03T13:40:35.921Z,1.43
2019-05-03T13:43:06.574Z,1.80
2019-05-03T13:45:36.232Z,3.57
2019-05-03T13:48:05.826Z,3.03
2019-05-03T13:50:35.461Z,1.40
2019-05-03T13:53:05.024Z,2.67
2019-05-03T13:55:35.283Z,1.13
2019-05-03T13:58:05.285Z,0.77
2019-05-03T14:00:34.919Z,1.50
2019-05-03T14:03:04.710Z,3.07
2019-05-03T14:05:35.230Z,1.13
2019-05-03T14:08:05.551Z,1.17
2019-05-03T14:10:36.016Z,1.53
2019-05-03T14:13:05.769Z,1.00
2019-05-03T14:15:35.328Z,1.53
2019-05-03T14:18:06.017Z,1.93
2019-05-03T14:20:55.042Z,1.77
2019-05-03T14:23:25.359Z,0.90
2019-05-03T14:25:55.279Z,1.53
2019-05-03T14:28:25.324Z,1.20
2019-05-03T14:30:55.019Z,1.80
2019-05-03T14:33:24.992Z,1.00
2019-05-03T14:35:55.840Z,2.17
2019-05-03T14:38:25.588Z,2.63
2019-05-03T14:40:55.303Z,1.63
2019-05-03T14:43:25.010Z,3.13
2019-05-03T14:45:55.143Z,3.63
2019-05-03T14:48:25.035Z,2.40
2019-05-03T14:50:57.355Z,1.70
2019-05-03T14:53:26.391Z,2.73
2019-05-03T14:56:01.984Z,2.60
2019-05-03T14:58:47.448Z,1.07
2019-05-03T15:01:27.002Z,1.50
2019-05-03T15:03:56.571Z,4.57
2019-05-03T15:06:26.146Z,1.77
2019-05-03T15:08:55.711Z,1.33
2019-05-03T15:11:25.267Z,1.97
2019-05-03T15:13:55.096Z,3.10
2019-05-03T15:16:25.084Z,3.47
2019-05-03T15:18:55.003Z,2.77
2019-05-03T15:21:25.265Z,3.77
2019-05-03T15:23:54.963Z,2.17
2019-05-03T15:26:24.970Z,2.20
2019-05-03T15:28:55.410Z,1.17
2019-05-03T15:31:25.095Z,3.70
2019-05-03T15:33:55.481Z,4.20
2019-05-03T15:36:25.469Z,4.20
2019-05-03T15:38:55.264Z,2.20
2019-05-03T15:41:25.221Z,3.17
2019-05-03T15:44:00.677Z,5.33
2019-05-03T15:46:39.153Z,7.07
2019-05-03T15:49:08.689Z,3.50
2019-05-03T15:51:38.243Z,1.83
2019-05-03T15:54:07.790Z,2.83
2019-05-03T15:56:37.377Z,4.27
2019-05-03T15:59:06.929Z,2.67
2019-05-03T16:01:37.010Z,3.90
2019-05-03T16:04:06.628Z,4.03
2019-05-03T16:06:36.208Z,4.87
2019-05-03T16:09:07.007Z,6.33
2019-05-03T16:11:36.595Z,3.83
2019-05-03T16:14:06.183Z,4.40
2019-05-03T16:16:36.179Z,2.70
2019-05-03T16:19:05.728Z,3.60
2019-05-03T16:21:36.762Z,2.33
2019-05-03T16:24:06.508Z,4.37
2019-05-03T16:26:37.948Z,4.00
2019-05-03T16:29:11.704Z,1.47
2019-05-03T16:31:41.268Z,3.93
2019-05-03T16:34:11.172Z,4.20
2019-05-03T16:36:40.774Z,1.63
2019-05-03T16:39:10.426Z,2.10
2019-05-03T16:41:39.960Z,1.27
2019-05-03T16:44:09.518Z,4.10
2019-05-03T16:46:39.062Z,2.07
2019-05-03T16:49:08.640Z,2.40
2019-05-03T16:51:38.207Z,2.87
2019-05-03T16:54:08.073Z,3.97
2019-05-03T16:56:37.630Z,5.03
2019-05-03T16:59:07.191Z,1.30
2019-05-03T17:01:36.758Z,3.20
2019-05-03T17:04:26.545Z,1.00
2019-05-03T17:07:15.211Z,3.20
2019-05-03T17:10:07.936Z,4.10
2019-05-03T17:12:37.778Z,2.07
2019-05-03T17:15:07.744Z,4.33
2019-05-03T17:17:37.294Z,6.40
2019-05-03T17:20:07.022Z,10.63
2019-05-03T17:22:36.591Z,12.77
2019-05-03T17:25:06.551Z,13.73
2019-05-03T17:27:36.491Z,19.23
2019-05-03T17:30:06.261Z,20.87
2019-05-03T17:32:35.914Z,19.43
2019-05-03T17:35:05.562Z,14.37
2019-05-03T17:37:35.140Z,20.77
2019-05-03T17:40:24.564Z,16.70
2019-05-03T17:43:09.965Z,26.87
2019-05-03T17:45:43.259Z,25.60
2019-05-03T17:48:14.889Z,20.73
2019-05-03T17:50:45.448Z,21.00
2019-05-03T17:53:48.995Z,38.07
2019-05-03T17:56:40.361Z,29.50
2019-05-03T17:59:15.193Z,24.83
2019-05-03T18:02:15.918Z,22.60
2019-05-03T18:04:54.959Z,21.50
2019-05-03T18:07:41.726Z,24.70
2019-05-03T18:10:11.756Z,25.57
2019-05-03T18:12:41.313Z,20.93
2019-05-03T18:15:10.928Z,19.27
2019-05-03T18:17:40.502Z,24.20
2019-05-03T18:20:10.076Z,16.80
2019-05-03T18:22:39.683Z,18.93
2019-05-03T18:25:09.160Z,20.50
2019-05-03T18:27:38.784Z,16.13
2019-05-03T18:30:08.372Z,16.93
2019-05-03T18:32:37.934Z,19.30
2019-05-03T18:35:07.624Z,18.40
2019-05-03T18:37:37.294Z,14.30
2019-05-03T18:40:07.229Z,9.53
2019-05-03T18:42:44.669Z,13.03
2019-05-03T18:45:19.309Z,13.97
2019-05-03T18:47:49.839Z,11.33
2019-05-03T18:50:19.501Z,12.00
2019-05-03T18:52:49.682Z,9.60
2019-05-03T18:55:19.766Z,6.73
2019-05-03T18:57:49.415Z,5.83
2019-05-03T19:00:20.620Z,10.67
2019-05-03T19:02:50.159Z,5.57
2019-05-03T19:05:21.323Z,4.60
2019-05-03T19:08:00.914Z,6.43
2019-05-03T19:10:55.551Z,6.60
2019-05-03T19:13:29.127Z,5.03
2019-05-03T19:16:00.774Z,6.43
2019-05-03T19:18:32.249Z,5.67
2019-05-03T19:21:02.188Z,4.97
2019-05-03T19:23:31.889Z,4.37
2019-05-03T19:26:01.846Z,6.80
2019-05-03T19:28:32.478Z,6.37
2019-05-03T19:31:03.052Z,3.13
2019-05-03T19:33:34.803Z,3.63
2019-05-03T19:36:04.705Z,1.60
2019-05-03T19:38:35.135Z,3.90
2019-05-03T19:41:04.900Z,3.63
2019-05-03T19:43:35.535Z,3.00
2019-05-03T19:46:07.466Z,3.77
2019-05-03T19:48:36.581Z,1.60
2019-05-03T19:51:06.162Z,3.77
2019-05-03T19:53:55.199Z,1.87
2019-05-03T19:56:25.771Z,2.27
2019-05-03T19:59:00.451Z,1.93
2019-05-03T20:01:39.976Z,2.17
2019-05-03T20:04:41.632Z,1.87
2019-05-03T20:07:30.474Z,2.13
2019-05-03T20:10:00.326Z,2.50
2019-05-03T20:12:30.334Z,2.43
2019-05-03T20:15:00.600Z,2.07
2019-05-03T20:17:30.453Z,4.57
2019-05-03T20:20:00.540Z,3.17
2019-05-03T20:22:30.233Z,3.23
2019-05-03T20:24:59.926Z,1.20
2019-05-03T20:27:29.857Z,3.03
2019-05-03T20:29:59.529Z,1.73
2019-05-03T20:32:29.206Z,3.27
2019-05-03T20:35:10.738Z,2.03
2019-05-03T20:37:30.767Z,2.50
2019-05-03T20:40:00.418Z,2.60
2019-05-03T20:42:55.764Z,2.27
2019-05-03T20:45:30.974Z,4.37
2019-05-03T20:48:00.561Z,2.83
2019-05-03T20:50:30.305Z,3.00
2019-05-03T20:52:59.910Z,1.77
2019-05-03T20:55:29.499Z,4.67
2019-05-03T20:57:59.422Z,3.20
2019-05-03T21:00:28.977Z,3.60
2019-05-03T21:02:58.530Z,1.77
2019-05-03T21:05:32.041Z,1.67
2019-05-03T21:07:59.466Z,3.23
2019-05-03T21:10:29.042Z,2.97
2019-05-03T21:12:58.594Z,4.37
2019-05-03T21:15:35.509Z,2.90
2019-05-03T21:18:24.394Z,4.73
2019-05-03T21:20:59.131Z,1.33
2019-05-03T21:23:29.763Z,1.47
2019-05-03T21:26:12.521Z,1.67
2019-05-03T21:28:37.380Z,5.97
2019-05-03T21:31:07.046Z,2.07
2019-05-03T21:33:36.599Z,1.77
2019-05-03T21:36:06.161Z,3.53
2019-05-03T21:38:35.797Z,1.70
2019-05-03T21:41:05.472Z,5.20
2019-05-03T21:43:35.222Z,4.90
2019-05-03T21:46:10.412Z,2.43
2019-05-03T21:48:57.477Z,2.10
2019-05-03T21:51:27.087Z,1.53
2019-05-03T21:53:56.744Z,3.57
2019-05-03T21:56:26.303Z,2.60
2019-05-03T21:58:55.861Z,1.37
2019-05-03T22:01:25.980Z,4.13
2019-05-03T22:03:55.719Z,3.10
2019-05-03T22:06:25.621Z,2.83
2019-05-03T22:08:55.512Z,2.13
2019-05-03T22:11:25.359Z,1.37
2019-05-03T22:13:57.337Z,1.53
2019-05-03T22:16:40.625Z,2.20
2019-05-03T22:19:10.539Z,1.67
2019-05-03T22:21:46.491Z,1.37
2019-05-03T22:24:38.409Z,2.57
2019-05-03T22:27:18.040Z,3.00
2019-05-03T22:29:47.649Z,2.20
2019-05-03T22:32:17.501Z,3.03
2019-05-03T22:34:47.046Z,1.87
2019-05-03T22:37:16.782Z,3.90
2019-05-03T22:39:47.643Z,2.50
2019-05-03T22:42:17.432Z,1.77
2019-05-03T22:44:47.407Z,4.00
2019-05-03T22:47:16.966Z,5.30
2019-05-03T22:49:46.517Z,1.97
2019-05-03T22:52:16.158Z,2.53
2019-05-03T22:54:46.132Z,2.30
2019-05-03T22:57:15.713Z,1.73
2019-05-03T22:59:45.267Z,2.77
2019-05-03T23:02:16.721Z,1.50
2019-05-03T23:04:46.128Z,1.57
2019-05-03T23:07:15.695Z,1.93
2019-05-03T23:09:45.247Z,2.33
2019-05-03T23:12:15.097Z,1.47
2019-05-03T23:14:44.818Z,1.13
2019-05-03T23:17:15.048Z,1.97
2019-05-03T23:19:47.563Z,4.00
2019-05-03T23:22:21.634Z,2.40
2019-05-03T23:24:51.183Z,1.37
2019-05-03T23:27:20.778Z,2.43
2019-05-03T23:29:50.312Z,2.00
2019-05-03T23:32:20.072Z,3.50
2019-05-03T23:34:49.636Z,2.77
2019-05-03T23:37:19.199Z,2.17
2019-05-03T23:39:49.085Z,1.00
2019-05-03T23:42:18.639Z,1.70
2019-05-03T23:44:48.522Z,2.83
2019-05-03T23:47:34.478Z,3.70
2019-05-03T23:50:05.599Z,2.73
2019-05-03T23:52:36.072Z,2.77
2019-05-03T23:55:14.703Z,1.80
2019-05-03T23:57:44.682Z,4.33
